CheckWX is a tool to help pilots better visualize weather data.  It is not intended as a substitute for an official pre-flight weather briefing.

22:34:19 UTC

CYVT METAR
Buffalo Narrows Airport
Buffalo Narrows, Canada
Current

34 mins ago

CYVT 262200Z VRB03KT 15SM FEW026 FEW035 FEW250 06/M00 A2975 RMK CU1SC1CI2 CU TR SC TR SLP096
Observed
Mar-26 @ 22:00 UTC
Wind
  • Variable at 3 KTS
Visibility
15 SM
Flight Rules
VFR
Cloud Levels
  • Few at 2,600' AGL
  • Few at 3,500' AGL
  • Few at 25,000' AGL
Temperature
C / 43°F
Dewpoint
C / 32°F
Humidity
66%
Altimeter
29.75" Hg
Pressure
1009.6 hPa
Previous

2 hours ago

CYVT 262100Z 36003KT 300V030 15SM FEW035 BKN250 05/M00 A2976 RMK SC1CI6 SLP098
Observed
Mar-26 @ 21:00 UTC
Wind
  • 360° at 3 KTS
Visibility
15 SM
Flight Rules
VFR
Cloud Levels
  • Few at 3,500' AGL
  • Broken at 25,000' AGL
Temperature
C / 41°F
Dewpoint
C / 32°F
Humidity
70%
Altimeter
29.76" Hg
Pressure
1009.8 hPa
Previous

3 hours ago

CYVT 262000Z 25004KT 230V320 15SM OVC035 05/M01 A2977 RMK SC8 OCNL BRKS IN CLDS SLP101
Observed
Mar-26 @ 20:00 UTC
Wind
  • 250° at 4 KTS
Visibility
15 SM
Flight Rules
VFR
Cloud Levels
  • Overcast at 3,500' AGL
Temperature
C / 41°F
Dewpoint
-1°C / 30°F
Humidity
66%
Altimeter
29.77" Hg
Pressure
1010.1 hPa